Time;durP1;ratioP1;P1;durP2;ratioP2;P2;SDS_P1;SDS_P2;PMS_P1;PMS_P2;Temp;Humidity;BMP_temperature;BMP_pressure;BME280_temperature;BME280_humidity;BME280_pressure;Samples;Min_cycle;Max_cycle;Signal;HPM_P1;HPM_P2
2021/08/26 00:06:45;;;;;;;16.90;4.28;;;14.90;99.90;;;;;;5103248;28;20052;-64
2021/08/26 00:09:11;;;;;;;15.55;4.68;;;14.90;99.90;;;;;;5138201;28;20079;-62
2021/08/26 00:11:37;;;;;;;19.95;4.53;;;14.90;99.90;;;;;;5091344;28;20471;-62
2021/08/26 00:14:05;;;;;;;19.23;5.30;;;14.90;99.90;;;;;;5104895;28;20043;-63
2021/08/26 00:16:32;;;;;;;20.05;4.57;;;14.90;99.90;;;;;;5104174;28;20040;-63
2021/08/26 00:18:58;;;;;;;17.67;4.35;;;14.90;99.90;;;;;;5137618;28;20105;-63
2021/08/26 00:21:24;;;;;;;20.73;4.70;;;14.90;99.90;;;;;;5105684;28;20121;-63
2021/08/26 00:23:50;;;;;;;18.17;4.43;;;14.90;99.90;;;;;;5138079;28;20048;-63
2021/08/26 00:26:16;;;;;;;13.05;4.15;;;14.90;99.90;;;;;;5084978;28;20048;-63
2021/08/26 00:28:41;;;;;;;21.30;3.97;;;14.90;99.90;;;;;;5125133;28;20472;-63
2021/08/26 00:31:07;;;;;;;19.48;4.28;;;14.80;99.90;;;;;;5104449;28;20047;-63
2021/08/26 00:33:33;;;;;;;13.25;3.88;;;14.80;99.90;;;;;;5100938;28;20097;-63
2021/08/26 00:35:59;;;;;;;17.33;4.20;;;14.80;99.90;;;;;;5108150;28;20040;-63
2021/08/26 00:38:25;;;;;;;19.00;4.55;;;14.80;99.90;;;;;;5141698;27;20051;-64
2021/08/26 00:40:52;;;;;;;18.15;4.22;;;14.80;99.90;;;;;;5107675;28;20068;-63
2021/08/26 00:43:18;;;;;;;13.02;4.90;;;14.70;99.90;;;;;;5108045;28;20056;-63
2021/08/26 00:45:46;;;;;;;14.50;3.97;;;14.70;99.90;;;;;;5108360;28;20048;-63
2021/08/26 00:48:12;;;;;;;15.70;4.45;;;14.70;99.90;;;;;;5108572;28;20044;-64
2021/08/26 00:50:38;;;;;;;15.27;4.50;;;14.70;99.90;;;;;;5108492;28;20052;-63
2021/08/26 00:53:03;;;;;;;20.10;4.60;;;14.70;99.90;;;;;;5140124;27;20044;-63
2021/08/26 00:55:29;;;;;;;21.02;4.13;;;14.70;99.90;;;;;;5106637;28;20055;-63
2021/08/26 00:57:55;;;;;;;20.73;4.32;;;14.70;99.90;;;;;;5108431;28;20043;-63
2021/08/26 01:00:21;;;;;;;10.18;3.55;;;14.70;99.90;;;;;;5107157;28;20090;-63
2021/08/26 01:03:09;;;;;;;15.52;3.42;;;14.70;99.90;;;;;;5107928;28;20122;-62
2021/08/26 01:05:54;;;;;;;17.05;4.10;;;14.70;99.90;;;;;;5100990;28;20052;-62
2021/08/26 01:08:40;;;;;;;15.43;4.13;;;14.70;99.90;;;;;;5137470;27;20054;-62
2021/08/26 01:11:06;;;;;;;20.00;4.20;;;14.80;99.90;;;;;;5141646;27;20050;-63
2021/08/26 01:13:37;;;;;;;13.98;4.35;;;14.80;99.90;;;;;;5108428;28;20044;-62
2021/08/26 01:16:14;;;;;;;15.20;3.97;;;14.80;99.90;;;;;;5141326;27;20044;-62
2021/08/26 01:18:43;;;;;;;11.45;3.55;;;14.80;99.90;;;;;;5094205;28;20077;-62
2021/08/26 01:21:20;;;;;;;16.88;4.03;;;14.70;99.90;;;;;;5106431;28;20574;-62
2021/08/26 01:23:56;;;;;;;16.92;3.75;;;14.70;99.90;;;;;;5107568;28;20044;-62
2021/08/26 01:26:26;;;;;;;14.80;3.58;;;14.70;99.90;;;;;;5106278;28;20047;-63
2021/08/26 01:28:54;;;;;;;16.90;4.07;;;14.70;99.90;;;;;;5107823;28;20052;-63
2021/08/26 01:31:21;;;;;;;14.23;3.47;;;14.70;99.90;;;;;;5139370;27;20056;-62
2021/08/26 01:33:54;;;;;;;13.20;3.40;;;14.70;99.90;;;;;;5136367;27;20040;-62
2021/08/26 01:36:23;;;;;;;8.70;2.30;;;14.90;99.90;;;;;;5102460;28;20158;-63
2021/08/26 01:38:51;;;;;;;7.28;2.47;;;14.90;99.90;;;;;;5106269;28;20348;-62
2021/08/26 01:41:17;;;;;;;12.23;3.05;;;14.90;99.90;;;;;;5107459;28;20076;-63
2021/08/26 01:43:52;;;;;;;7.80;2.42;;;15.00;99.90;;;;;;5108203;28;20044;-63
2021/08/26 01:46:18;;;;;;;12.90;2.90;;;15.00;99.90;;;;;;5139789;27;20040;-63
2021/08/26 01:48:47;;;;;;;10.15;3.33;;;15.00;99.90;;;;;;5106658;28;20080;-63
2021/08/26 01:51:13;;;;;;;;;;;14.90;99.90;;;;;;5090182;28;20716;-62
2021/08/26 01:53:39;;;;;;;16.45;5.78;;;14.90;99.90;;;;;;5104239;28;19924;-62
2021/08/26 01:56:05;;;;;;;19.50;5.10;;;14.90;99.90;;;;;;5107002;28;20056;-62
2021/08/26 01:58:31;;;;;;;12.15;4.45;;;14.90;99.90;;;;;;5140575;27;20104;-63
2021/08/26 02:00:57;;;;;;;14.32;4.20;;;14.90;99.90;;;;;;5093303;28;20138;-62
2021/08/26 02:03:23;;;;;;;13.88;4.45;;;14.90;99.90;;;;;;5105542;28;20083;-62
2021/08/26 02:05:48;;;;;;;13.23;4.28;;;14.80;99.90;;;;;;5106731;28;20083;-63
2021/08/26 02:08:14;;;;;;;12.48;3.17;;;14.80;99.90;;;;;;5089203;28;20048;-63
2021/08/26 02:10:40;;;;;;;13.30;3.72;;;14.80;99.90;;;;;;5107035;28;20048;-63
2021/08/26 02:13:05;;;;;;;13.25;3.05;;;14.80;99.90;;;;;;5140071;27;20048;-63
2021/08/26 02:15:31;;;;;;;15.35;4.65;;;14.80;99.90;;;;;;5106196;28;20040;-63
2021/08/26 02:17:57;;;;;;;10.88;2.78;;;14.80;99.90;;;;;;5105797;28;20082;-63
2021/08/26 02:20:23;;;;;;;15.27;3.40;;;14.70;99.90;;;;;;5107192;28;20434;-63
2021/08/26 02:22:49;;;;;;;18.65;3.22;;;14.60;99.90;;;;;;5105846;28;20047;-63
2021/08/26 02:25:15;;;;;;;14.50;3.42;;;14.50;99.90;;;;;;5105207;28;20052;-63
2021/08/26 02:27:41;;;;;;;14.07;3.10;;;14.50;99.90;;;;;;5100070;28;20041;-63
2021/08/26 02:30:08;;;;;;;21.27;4.13;;;14.40;99.90;;;;;;5098060;28;20071;-63
2021/08/26 02:32:35;;;;;;;13.18;3.30;;;14.30;99.90;;;;;;5105786;28;20050;-63
2021/08/26 02:35:01;;;;;;;17.33;3.35;;;14.30;99.90;;;;;;5106663;28;20076;-63
2021/08/26 02:37:27;;;;;;;11.65;3.20;;;14.30;99.90;;;;;;5104407;28;20032;-63
2021/08/26 02:39:53;;;;;;;14.45;3.28;;;14.30;99.90;;;;;;5106201;28;20031;-63
2021/08/26 02:42:19;;;;;;;11.70;3.13;;;14.20;99.90;;;;;;5138832;27;20055;-63
2021/08/26 02:44:45;;;;;;;13.85;3.70;;;14.20;99.90;;;;;;5106111;28;20044;-64
2021/08/26 02:47:10;;;;;;;16.17;3.28;;;14.10;99.90;;;;;;5104382;28;20046;-63
2021/08/26 02:49:37;;;;;;;14.70;3.75;;;14.20;99.90;;;;;;5105658;28;20036;-64
2021/08/26 02:52:04;;;;;;;11.27;2.72;;;14.20;99.90;;;;;;5138589;27;20052;-63
2021/08/26 02:54:30;;;;;;;12.20;2.80;;;14.20;99.90;;;;;;5130015;27;20048;-63
2021/08/26 02:56:56;;;;;;;11.90;2.60;;;14.20;99.90;;;;;;5085348;28;20059;-64
2021/08/26 02:59:22;;;;;;;14.02;3.10;;;14.20;99.90;;;;;;5118975;28;20056;-63
2021/08/26 03:01:47;;;;;;;9.63;3.10;;;14.20;99.90;;;;;;5118345;28;20045;-63
2021/08/26 03:04:13;;;;;;;10.27;2.58;;;14.20;99.90;;;;;;5091766;28;20723;-63
2021/08/26 03:06:39;;;;;;;12.25;2.72;;;14.20;99.90;;;;;;5105525;28;20044;-63
2021/08/26 03:09:04;;;;;;;11.52;2.63;;;14.20;99.90;;;;;;5104667;28;20056;-63
2021/08/26 03:11:30;;;;;;;14.10;2.63;;;14.30;99.90;;;;;;5092250;28;20044;-63
2021/08/26 03:13:56;;;;;;;12.15;2.00;;;14.20;99.90;;;;;;5103971;28;20052;-63
2021/08/26 03:16:22;;;;;;;12.23;2.65;;;14.30;99.90;;;;;;5104271;28;20051;-63
2021/08/26 03:18:47;;;;;;;11.07;2.17;;;14.30;99.90;;;;;;5104875;28;20050;-63
2021/08/26 03:21:16;;;;;;;10.38;2.28;;;14.30;99.90;;;;;;5105623;28;20055;-63
2021/08/26 03:23:42;;;;;;;9.15;2.10;;;14.30;99.90;;;;;;5105910;28;20111;-63
2021/08/26 03:26:08;;;;;;;12.38;2.95;;;14.30;99.90;;;;;;5104402;28;20055;-63
2021/08/26 03:28:33;;;;;;;9.68;2.33;;;14.20;99.90;;;;;;5105597;28;20095;-62
2021/08/26 03:30:59;;;;;;;8.32;1.67;;;14.30;99.90;;;;;;5106007;28;20543;-63
2021/08/26 03:33:25;;;;;;;9.50;2.17;;;14.20;99.90;;;;;;5104246;28;20044;-63
2021/08/26 03:35:51;;;;;;;11.57;2.53;;;14.20;99.90;;;;;;5101804;28;20051;-63
2021/08/26 03:38:17;;;;;;;8.55;2.28;;;14.20;99.90;;;;;;5089675;28;20119;-63
2021/08/26 03:40:43;;;;;;;12.82;2.17;;;14.30;99.90;;;;;;5138199;27;20099;-63
2021/08/26 03:43:09;;;;;;;13.70;2.08;;;14.30;99.90;;;;;;5103716;28;20100;-62
2021/08/26 03:45:35;;;;;;;11.75;2.80;;;14.30;99.90;;;;;;5103503;28;20044;-63
2021/08/26 03:48:01;;;;;;;10.93;2.88;;;14.30;99.90;;;;;;5105013;28;20044;-63
2021/08/26 03:50:26;;;;;;;10.80;2.75;;;14.30;99.90;;;;;;5102576;28;20052;-63
2021/08/26 03:52:52;;;;;;;11.98;2.28;;;14.30;99.90;;;;;;5102831;28;20059;-63
2021/08/26 03:55:18;;;;;;;12.52;2.85;;;14.30;99.90;;;;;;5103559;28;20054;-63
2021/08/26 03:57:44;;;;;;;11.15;3.15;;;14.30;99.90;;;;;;5104513;28;20048;-63
2021/08/26 04:00:10;;;;;;;13.13;2.03;;;14.30;99.90;;;;;;5097532;28;20059;-63
2021/08/26 04:02:36;;;;;;;12.73;2.35;;;14.30;99.90;;;;;;5096232;28;20046;-63
2021/08/26 04:05:01;;;;;;;10.05;2.20;;;14.30;99.90;;;;;;5103847;28;20131;-63
2021/08/26 04:07:31;;;;;;;13.63;3.03;;;14.30;99.90;;;;;;5137002;27;20062;-63
2021/08/26 04:09:58;;;;;;;9.73;2.42;;;14.30;99.90;;;;;;5105187;28;20101;-63
2021/08/26 04:12:24;;;;;;;10.77;2.35;;;14.30;99.90;;;;;;5138728;28;20044;-63
2021/08/26 04:14:50;;;;;;;12.25;3.00;;;14.30;99.90;;;;;;5104637;28;20055;-63
2021/08/26 04:17:16;;;;;;;10.32;2.03;;;14.30;99.90;;;;;;5103057;28;20109;-63
2021/08/26 04:19:41;;;;;;;12.65;2.75;;;14.20;99.90;;;;;;5103996;28;20051;-63
2021/08/26 04:22:07;;;;;;;15.55;2.63;;;14.10;99.90;;;;;;5103377;28;20056;-62
2021/08/26 04:24:33;;;;;;;12.57;2.55;;;14.10;99.90;;;;;;5103598;28;20047;-62
2021/08/26 04:26:59;;;;;;;12.63;2.40;;;14.10;99.90;;;;;;5137440;28;20040;-62
2021/08/26 04:29:24;;;;;;;12.20;2.42;;;14.00;99.90;;;;;;5102855;28;20050;-62
2021/08/26 04:31:50;;;;;;;15.10;3.10;;;13.90;99.90;;;;;;5103201;28;20052;-62
2021/08/26 04:34:16;;;;;;;11.98;2.88;;;13.90;99.90;;;;;;5104461;28;20037;-63
2021/08/26 04:36:41;;;;;;;12.10;2.83;;;13.80;99.90;;;;;;5103380;28;20511;-63
2021/08/26 04:39:07;;;;;;;9.45;2.70;;;13.80;99.90;;;;;;5086179;28;20040;-63
2021/08/26 04:41:33;;;;;;;9.63;2.63;;;13.80;99.90;;;;;;5086981;28;20127;-63
2021/08/26 04:43:59;;;;;;;13.43;3.20;;;13.80;99.90;;;;;;5104300;28;20052;-63
2021/08/26 04:46:24;;;;;;;10.25;2.83;;;13.80;99.90;;;;;;5104415;28;20060;-63
2021/08/26 04:48:50;;;;;;;9.60;2.80;;;13.80;99.90;;;;;;5103088;28;20040;-63
2021/08/26 04:51:16;;;;;;;11.23;3.00;;;13.70;99.90;;;;;;5104477;28;20084;-63
2021/08/26 04:53:41;;;;;;;10.13;2.45;;;13.80;99.90;;;;;;5102917;28;20044;-63
2021/08/26 04:56:07;;;;;;;12.32;2.90;;;13.80;99.90;;;;;;5104359;28;20036;-63
2021/08/26 04:58:33;;;;;;;10.07;2.85;;;13.80;99.90;;;;;;5102869;28;20044;-63
2021/08/26 05:00:58;;;;;;;11.25;3.67;;;13.80;99.90;;;;;;5105490;28;20056;-63
2021/08/26 05:03:24;;;;;;;14.13;3.30;;;13.80;99.90;;;;;;5103808;28;20036;-63
2021/08/26 05:05:50;;;;;;;11.43;2.90;;;13.90;99.90;;;;;;5086563;28;20531;-63
2021/08/26 05:08:15;;;;;;;14.80;3.28;;;13.90;99.90;;;;;;5102606;28;20097;-63
2021/08/26 05:10:41;;;;;;;11.00;2.70;;;13.90;99.90;;;;;;5096245;28;20036;-63
2021/08/26 05:13:07;;;;;;;13.77;3.20;;;14.00;99.90;;;;;;5098779;28;20070;-63
2021/08/26 05:15:36;;;;;;;11.20;2.83;;;14.00;99.90;;;;;;5102932;28;20036;-63
2021/08/26 05:18:02;;;;;;;14.23;3.13;;;14.00;99.90;;;;;;5091117;28;20044;-63
2021/08/26 05:20:28;;;;;;;13.68;3.38;;;14.10;99.90;;;;;;5101454;28;20290;-63
2021/08/26 05:22:54;;;;;;;10.45;3.03;;;14.20;99.90;;;;;;5106400;28;20146;-63
2021/08/26 05:25:19;;;;;;;10.70;3.03;;;14.20;99.90;;;;;;5094240;28;20082;-63
2021/08/26 05:27:45;;;;;;;9.68;2.40;;;14.30;99.90;;;;;;5141006;27;20036;-63
2021/08/26 05:30:11;;;;;;;11.90;2.63;;;14.30;99.90;;;;;;5140096;27;20051;-63
2021/08/26 05:32:37;;;;;;;15.00;3.13;;;14.30;99.90;;;;;;5106059;28;20124;-63
2021/08/26 05:35:02;;;;;;;15.43;3.70;;;14.30;99.90;;;;;;5106849;28;20416;-63
2021/08/26 05:37:28;;;;;;;18.08;4.13;;;14.30;99.90;;;;;;5106504;28;20093;-63
2021/08/26 05:39:54;;;;;;;13.77;3.22;;;14.30;99.90;;;;;;5106916;28;20097;-63
2021/08/26 05:42:19;;;;;;;13.05;2.67;;;14.30;99.90;;;;;;5106102;28;20073;-62
2021/08/26 05:44:45;;;;;;;10.52;3.47;;;14.20;99.90;;;;;;5106848;28;20047;-63
2021/08/26 05:47:11;;;;;;;15.35;3.55;;;14.20;99.90;;;;;;5105824;28;20050;-62
2021/08/26 05:49:36;;;;;;;11.45;3.33;;;14.20;99.90;;;;;;5089033;28;20055;-63
2021/08/26 05:52:02;;;;;;;16.58;4.13;;;14.30;99.90;;;;;;5106581;28;20044;-62
2021/08/26 05:54:28;;;;;;;14.77;3.53;;;14.30;99.90;;;;;;5105668;28;20139;-63
2021/08/26 05:56:58;;;;;;;14.45;3.72;;;14.30;99.90;;;;;;5107026;28;20140;-63
2021/08/26 05:59:24;;;;;;;17.52;4.18;;;14.30;99.90;;;;;;5105700;28;20044;-63
2021/08/26 06:01:49;;;;;;;14.43;3.47;;;14.30;99.90;;;;;;5105927;28;20039;-62
2021/08/26 06:04:15;;;;;;;13.27;3.20;;;14.40;99.90;;;;;;5107186;28;20482;-62
2021/08/26 06:06:41;;;;;;;19.23;3.63;;;14.40;99.90;;;;;;5074367;28;20112;-62
2021/08/26 06:09:06;;;;;;;17.10;4.20;;;14.50;99.90;;;;;;5083288;28;20169;-63
2021/08/26 06:11:33;;;;;;;22.02;4.55;;;14.60;99.90;;;;;;5082202;28;20045;-63
2021/08/26 06:13:58;;;;;;;14.25;4.22;;;14.60;99.90;;;;;;5081889;28;20052;-63
2021/08/26 06:16:24;;;;;;;17.48;4.65;;;14.70;99.90;;;;;;5080495;28;20056;-63
2021/08/26 06:18:50;;;;;;;20.42;4.93;;;14.70;99.90;;;;;;5084556;28;20317;-63
2021/08/26 06:21:16;;;;;;;14.10;3.65;;;14.80;99.90;;;;;;5085432;28;20051;-64
2021/08/26 06:23:42;;;;;;;12.07;3.38;;;14.80;99.90;;;;;;5083418;28;20083;-64
2021/08/26 06:26:08;;;;;;;18.23;3.95;;;14.80;99.90;;;;;;5080722;28;20044;-64
2021/08/26 06:28:34;;;;;;;18.85;4.28;;;14.90;99.90;;;;;;5083399;28;20044;-64
2021/08/26 06:31:00;;;;;;;18.55;5.30;;;15.00;99.90;;;;;;5081775;28;20040;-64
2021/08/26 06:33:26;;;;;;;17.23;4.30;;;15.00;99.90;;;;;;5073949;28;20502;-64
2021/08/26 06:35:52;;;;;;;16.05;4.72;;;15.10;99.90;;;;;;5063149;28;20044;-64
2021/08/26 06:38:18;;;;;;;16.08;3.92;;;15.10;99.90;;;;;;5081929;28;20139;-64
2021/08/26 06:40:44;;;;;;;18.80;4.35;;;15.20;99.90;;;;;;5081844;28;20531;-64
2021/08/26 06:43:10;;;;;;;17.50;4.50;;;15.20;99.90;;;;;;5084640;28;20048;-64
2021/08/26 06:45:36;;;;;;;19.58;4.03;;;15.30;99.90;;;;;;5084425;28;20106;-64
2021/08/26 06:48:02;;;;;;;17.08;4.43;;;15.40;99.90;;;;;;5082784;28;20056;-65
2021/08/26 06:50:28;;;;;;;19.38;4.60;;;15.50;99.90;;;;;;5084889;28;20049;-65
2021/08/26 06:52:54;;;;;;;22.10;5.03;;;15.50;99.90;;;;;;5077793;28;20056;-65
2021/08/26 06:55:20;;;;;;;17.65;5.00;;;15.60;99.90;;;;;;5084833;28;20056;-65
2021/08/26 06:57:45;;;;;;;17.05;4.57;;;15.60;99.90;;;;;;5083962;28;20056;-65
2021/08/26 07:00:12;;;;;;;18.10;4.70;;;15.70;99.90;;;;;;5083642;28;20083;-65
2021/08/26 07:02:37;;;;;;;19.42;4.90;;;15.70;99.90;;;;;;5082510;28;20043;-64
2021/08/26 07:05:04;;;;;;;21.55;4.78;;;15.80;99.90;;;;;;5082792;28;20040;-65
2021/08/26 07:07:29;;;;;;;17.65;4.88;;;15.80;99.90;;;;;;5068721;28;20056;-64
2021/08/26 07:09:55;;;;;;;20.75;4.10;;;15.90;99.90;;;;;;5080521;28;20056;-64
2021/08/26 07:12:21;;;;;;;21.33;3.80;;;16.00;99.90;;;;;;5064141;28;20048;-65
2021/08/26 07:14:46;;;;;;;25.17;4.75;;;16.00;99.90;;;;;;5074750;28;20056;-65
2021/08/26 07:17:12;;;;;;;19.90;4.57;;;16.00;99.90;;;;;;5081354;28;20040;-64
2021/08/26 07:19:38;;;;;;;21.80;5.57;;;16.10;99.90;;;;;;5079852;28;20175;-64
2021/08/26 07:22:04;;;;;;;21.50;5.05;;;16.20;99.90;;;;;;5080778;28;20045;-65
2021/08/26 07:24:29;;;;;;;20.85;4.68;;;16.20;99.90;;;;;;5082703;28;20048;-65
2021/08/26 07:26:55;;;;;;;16.73;4.53;;;16.30;99.90;;;;;;5082395;28;20070;-64
2021/08/26 07:29:21;;;;;;;22.65;5.15;;;16.30;99.90;;;;;;5081454;28;20040;-64
2021/08/26 07:31:47;;;;;;;20.63;5.20;;;16.40;99.90;;;;;;5080497;28;20068;-64
2021/08/26 07:34:13;;;;;;;18.70;5.47;;;16.40;99.90;;;;;;5065089;28;20052;-64
2021/08/26 07:36:39;;;;;;;21.20;5.25;;;16.50;99.90;;;;;;5080841;28;20047;-72
2021/08/26 07:39:05;;;;;;;22.45;5.38;;;16.50;99.90;;;;;;5081536;28;20046;-67
2021/08/26 07:41:31;;;;;;;22.50;4.60;;;16.60;99.90;;;;;;5064297;28;20037;-69
2021/08/26 07:43:57;;;;;;;24.35;5.53;;;16.60;99.90;;;;;;5081506;28;20093;-69
2021/08/26 07:46:24;;;;;;;22.90;5.90;;;16.70;99.90;;;;;;5081385;28;20036;-70
2021/08/26 07:48:49;;;;;;;21.95;5.05;;;16.70;99.90;;;;;;5074648;28;20056;-70
2021/08/26 07:51:15;;;;;;;20.77;5.28;;;16.80;99.90;;;;;;5076285;28;20063;-69
2021/08/26 07:53:41;;;;;;;21.00;5.28;;;16.80;99.90;;;;;;5077128;28;20057;-69
2021/08/26 07:56:07;;;;;;;21.10;5.88;;;16.90;99.90;;;;;;5082336;28;20052;-69
2021/08/26 07:58:32;;;;;;;22.05;4.47;;;16.90;99.90;;;;;;5060530;28;20055;-70
2021/08/26 08:01:00;;;;;;;17.02;5.45;;;17.00;99.90;;;;;;5057319;28;20063;-72
2021/08/26 08:03:27;;;;;;;19.92;4.72;;;17.10;99.90;;;;;;5070280;28;20146;-71
2021/08/26 08:05:53;;;;;;;19.40;4.40;;;17.20;99.90;;;;;;5069466;28;20064;-71
2021/08/26 08:08:19;;;;;;;20.65;5.07;;;17.30;99.90;;;;;;5070209;28;20064;-70
2021/08/26 08:10:45;;;;;;;18.55;3.97;;;17.40;99.90;;;;;;5069527;28;20052;-70
2021/08/26 08:13:11;;;;;;;20.20;4.93;;;17.50;99.90;;;;;;5075735;28;20056;-70
2021/08/26 08:15:37;;;;;;;20.50;5.35;;;17.50;99.90;;;;;;5055399;28;20079;-71
2021/08/26 08:18:03;;;;;;;16.23;4.45;;;17.60;99.90;;;;;;5064548;28;20037;-71
2021/08/26 08:20:29;;;;;;;25.85;6.63;;;17.70;99.90;;;;;;5050260;28;20114;-70
2021/08/26 08:22:55;;;;;;;18.27;5.22;;;17.80;99.90;;;;;;5058390;28;20037;-73
2021/08/26 08:25:21;;;;;;;17.45;4.80;;;17.70;99.90;;;;;;5033189;28;20056;-71
2021/08/26 08:27:46;;;;;;;26.10;5.68;;;17.80;99.90;;;;;;5057566;28;20491;-71
2021/08/26 08:30:12;;;;;;;20.92;4.32;;;17.80;99.90;;;;;;5049060;28;20045;-70
2021/08/26 08:32:38;;;;;;;18.90;4.53;;;17.90;99.90;;;;;;5056065;28;20049;-71
2021/08/26 08:35:04;;;;;;;20.23;4.18;;;18.00;99.90;;;;;;5047428;28;20049;-71
2021/08/26 08:37:30;;;;;;;10.63;4.00;;;18.10;99.90;;;;;;5062962;28;20040;-71
2021/08/26 08:39:55;;;;;;;20.92;4.82;;;18.10;99.90;;;;;;5053305;28;20104;-71
2021/08/26 08:42:23;;;;;;;17.88;5.25;;;18.10;99.90;;;;;;5050122;28;20138;-70
2021/08/26 08:44:49;;;;;;;18.48;4.53;;;18.20;99.90;;;;;;5047088;28;20505;-70
2021/08/26 08:47:16;;;;;;;18.25;4.72;;;18.30;99.90;;;;;;5066000;28;20064;-73
2021/08/26 08:49:43;;;;;;;18.15;4.88;;;18.40;99.90;;;;;;5058366;28;20045;-72
2021/08/26 08:52:09;;;;;;;23.13;5.10;;;18.40;99.90;;;;;;5079736;28;20059;-71
2021/08/26 08:54:36;;;;;;;18.95;4.20;;;18.50;99.90;;;;;;5085306;28;20080;-72
2021/08/26 08:57:03;;;;;;;18.17;4.70;;;18.60;99.90;;;;;;5080540;28;20043;-72
2021/08/26 08:59:30;;;;;;;18.75;5.00;;;18.60;99.90;;;;;;5099138;28;20215;-73
2021/08/26 09:01:56;;;;;;;20.88;4.57;;;18.70;99.90;;;;;;5087880;28;20051;-71
2021/08/26 09:04:23;;;;;;;14.02;4.68;;;18.70;99.90;;;;;;5102998;28;20067;-71
2021/08/26 09:06:50;;;;;;;17.50;4.47;;;18.60;99.90;;;;;;5065793;28;20291;-72
2021/08/26 09:09:17;;;;;;;20.45;5.38;;;18.60;99.90;;;;;;5073504;28;20040;-71
2021/08/26 09:12:09;;;;;;;21.10;4.97;;;18.70;99.90;;;;;;5070762;28;20050;-71
2021/08/26 09:14:34;;;;;;;13.55;4.03;;;18.60;99.90;;;;;;5061467;28;20056;-71
2021/08/26 09:17:01;;;;;;;15.05;4.38;;;18.80;99.90;;;;;;5082711;28;20051;-72
2021/08/26 09:19:31;;;;;;;18.80;4.65;;;18.80;99.90;;;;;;5065704;28;20044;-72
2021/08/26 09:21:58;;;;;;;;;;;18.90;99.90;;;;;;5061650;28;20058;-70
2021/08/26 09:24:40;;;;;;;24.05;4.90;;;18.80;99.90;;;;;;5070247;28;19954;-70
2021/08/26 09:27:06;;;;;;;15.68;4.20;;;18.80;99.90;;;;;;5072690;28;20099;-71
2021/08/26 09:29:32;;;;;;;19.85;5.15;;;18.70;99.90;;;;;;5088356;28;20037;-73
2021/08/26 09:31:59;;;;;;;17.60;4.82;;;18.70;99.90;;;;;;5076491;28;20518;-71
2021/08/26 09:34:25;;;;;;;15.57;4.95;;;18.60;99.90;;;;;;5084025;28;20128;-69
2021/08/26 09:36:54;;;;;;;15.43;3.95;;;18.70;99.90;;;;;;5077989;28;20044;-71
2021/08/26 09:39:22;;;;;;;16.70;4.30;;;18.70;99.90;;;;;;5078698;28;20105;-71
2021/08/26 09:42:03;;;;;;;20.80;4.22;;;18.90;99.90;;;;;;5083835;28;20044;-71
2021/08/26 09:44:31;;;;;;;16.95;3.83;;;19.00;99.90;;;;;;5082714;28;20051;-73
2021/08/26 09:47:15;;;;;;;15.18;4.63;;;19.00;99.90;;;;;;5086670;28;20048;-69
2021/08/26 09:49:41;;;;;;;21.58;4.93;;;19.10;99.90;;;;;;5084548;28;20048;-69
2021/08/26 09:52:15;;;;;;;17.67;3.67;;;19.10;99.90;;;;;;5079999;28;20045;-69
2021/08/26 09:54:44;;;;;;;12.35;3.35;;;19.20;99.90;;;;;;5073474;28;20063;-69
2021/08/26 09:57:39;;;;;;;13.05;3.97;;;19.20;99.90;;;;;;5086022;28;20060;-68
2021/08/26 10:00:05;;;;;;;14.30;4.25;;;19.30;99.90;;;;;;5084068;28;20098;-70
2021/08/26 10:02:32;;;;;;;12.93;3.30;;;19.30;99.90;;;;;;5085498;28;20036;-69
2021/08/26 10:04:59;;;;;;;15.55;3.88;;;19.30;99.90;;;;;;5085143;28;20060;-69
2021/08/26 10:07:27;;;;;;;18.92;4.63;;;19.40;99.90;;;;;;5084351;28;20100;-69
2021/08/26 10:09:53;;;;;;;16.33;4.97;;;19.40;99.90;;;;;;5083630;28;20132;-69
2021/08/26 10:12:19;;;;;;;16.70;4.20;;;19.40;99.90;;;;;;5085484;28;20036;-69
2021/08/26 10:14:50;;;;;;;17.17;3.72;;;19.60;99.90;;;;;;5083093;28;20041;-68
2021/08/26 10:17:16;;;;;;;14.52;3.75;;;19.60;99.90;;;;;;5084454;28;20076;-66
2021/08/26 10:19:43;;;;;;;11.45;4.00;;;19.70;99.90;;;;;;5068821;28;20070;-64
2021/08/26 10:22:10;;;;;;;16.20;4.85;;;19.80;99.90;;;;;;5086373;28;20039;-67
2021/08/26 10:24:36;;;;;;;16.80;4.45;;;19.90;99.90;;;;;;5083432;28;20049;-69
2021/08/26 10:27:14;;;;;;;12.93;3.88;;;20.00;99.90;;;;;;5068304;28;20104;-69
2021/08/26 10:29:49;;;;;;;17.33;4.38;;;20.10;99.90;;;;;;5082583;28;20040;-69
2021/08/26 10:32:23;;;;;;;12.88;4.88;;;20.00;99.90;;;;;;5081701;28;20032;-73
2021/08/26 10:35:14;;;;;;;16.77;4.22;;;19.90;99.90;;;;;;5081779;28;20040;-69
2021/08/26 10:37:55;;;;;;;14.13;3.60;;;19.70;99.90;;;;;;5070982;28;20048;-68
2021/08/26 10:40:39;;;;;;;12.25;3.75;;;19.60;99.90;;;;;;5083364;28;20048;-70
2021/08/26 10:43:07;;;;;;;12.40;4.07;;;19.60;99.90;;;;;;5084399;28;20500;-71
2021/08/26 10:45:47;;;;;;;12.73;3.92;;;19.50;99.90;;;;;;5083349;28;20055;-80
2021/08/26 10:48:15;;;;;;;14.60;4.20;;;19.60;99.90;;;;;;5082234;28;20036;-70
2021/08/26 10:50:43;;;;;;;16.30;3.92;;;19.60;99.90;;;;;;5082640;28;20055;-69
2021/08/26 10:53:24;;;;;;;16.02;4.10;;;19.60;99.90;;;;;;5079546;28;20131;-69
2021/08/26 10:55:51;;;;;;;17.58;4.68;;;19.60;99.90;;;;;;5083833;28;20052;-69
2021/08/26 10:58:23;;;;;;;11.75;3.70;;;19.60;99.90;;;;;;5085695;28;20411;-70
2021/08/26 11:01:00;;;;;;;12.02;4.20;;;19.70;99.90;;;;;;5113465;28;20036;-69
2021/08/26 11:03:35;;;;;;;12.93;4.55;;;19.90;99.90;;;;;;5083199;28;20057;-69
2021/08/26 11:06:01;;;;;;;15.52;4.30;;;20.10;99.90;;;;;;5082911;28;20041;-69
2021/08/26 11:08:33;;;;;;;13.77;4.50;;;20.10;99.90;;;;;;5083378;28;20071;-69
2021/08/26 11:11:30;;;;;;;12.50;3.65;;;20.10;99.90;;;;;;5084549;28;20407;-69
2021/08/26 11:14:02;;;;;;;13.73;3.83;;;19.90;99.90;;;;;;5079219;28;20044;-69
2021/08/26 11:16:27;;;;;;;15.98;4.35;;;19.80;99.90;;;;;;5084109;28;20044;-69
2021/08/26 11:19:16;;;;;;;18.48;4.93;;;20.00;99.90;;;;;;5084276;28;20086;-69
2021/08/26 11:21:45;;;;;;;15.35;4.07;;;19.90;99.90;;;;;;5090767;28;20056;-69
2021/08/26 11:24:14;;;;;;;14.52;4.22;;;19.60;99.90;;;;;;5084060;28;20535;-69
2021/08/26 11:26:50;;;;;;;11.80;3.38;;;19.50;99.90;;;;;;5084089;28;20064;-69
2021/08/26 11:29:36;;;;;;;17.38;3.85;;;19.30;99.90;;;;;;5083691;28;20063;-69
2021/08/26 11:32:07;;;;;;;12.32;3.58;;;19.40;99.90;;;;;;5084274;28;20052;-69
2021/08/26 11:34:49;;;;;;;16.55;3.80;;;19.60;99.90;;;;;;5083631;28;20040;-70
2021/08/26 11:37:18;;;;;;;11.93;2.60;;;20.00;99.90;;;;;;5085175;28;20036;-69
2021/08/26 11:39:45;;;;;;;;;;;20.20;99.90;;;;;;5079015;28;20100;-69
2021/08/26 11:42:24;;;;;;;12.70;2.90;;;20.30;99.90;;;;;;5082629;28;19920;-69
2021/08/26 11:45:08;;;;;;;9.55;2.33;;;20.40;99.90;;;;;;5083877;28;20086;-70
2021/08/26 11:47:37;;;;;;;6.75;2.20;;;20.50;99.90;;;;;;5072881;28;20053;-69
2021/08/26 11:50:33;;;;;;;7.93;2.00;;;20.50;99.90;;;;;;5063927;28;20048;-69
2021/08/26 11:53:10;;;;;;;4.90;1.40;;;20.50;99.90;;;;;;5069370;28;20052;-69
2021/08/26 11:55:40;;;;;;;8.98;1.52;;;20.60;99.90;;;;;;5058252;28;20204;-69
2021/08/26 11:58:08;;;;;;;4.05;1.20;;;20.90;99.90;;;;;;5097413;28;20071;-69
2021/08/26 12:00:42;;;;;;;1.80;0.80;;;21.10;99.90;;;;;;5064400;28;20040;-69
2021/08/26 12:03:08;;;;;;;3.05;1.08;;;21.20;99.90;;;;;;5096294;28;20033;-70
2021/08/26 12:05:34;;;;;;;3.75;0.70;;;21.20;99.90;;;;;;5063853;28;20045;-69
2021/08/26 12:08:06;;;;;;;4.93;1.10;;;21.20;99.90;;;;;;5114085;28;20060;-69
2021/08/26 12:10:33;;;;;;;3.65;1.27;;;21.20;99.90;;;;;;5074617;28;20052;-69
2021/08/26 12:13:08;;;;;;;4.10;0.80;;;21.20;99.90;;;;;;5113215;28;20049;-69
2021/08/26 12:15:42;;;;;;;2.92;0.80;;;21.30;99.90;;;;;;5063221;28;20551;-69
2021/08/26 12:18:21;;;;;;;3.47;0.75;;;21.40;99.90;;;;;;5063331;28;20045;-69
2021/08/26 12:20:56;;;;;;;4.50;0.85;;;21.50;99.90;;;;;;5094236;28;20047;-69
2021/08/26 12:23:23;;;;;;;2.92;0.70;;;21.60;99.90;;;;;;5064753;28;20052;-69
2021/08/26 12:26:13;;;;;;;4.88;1.00;;;21.60;99.90;;;;;;5063105;28;20067;-69
2021/08/26 12:28:43;;;;;;;4.95;0.82;;;21.50;99.90;;;;;;5064878;28;20112;-69
2021/08/26 12:31:12;;;;;;;1.67;0.60;;;21.40;99.90;;;;;;5066647;28;20045;-69
2021/08/26 12:33:38;;;;;;;6.78;1.05;;;21.00;99.90;;;;;;5100264;28;20049;-69
2021/08/26 12:36:04;;;;;;;3.35;0.63;;;20.80;99.90;;;;;;5101984;28;20102;-69
2021/08/26 12:38:42;;;;;;;2.97;0.60;;;20.70;99.90;;;;;;5090597;28;20540;-69
2021/08/26 12:41:13;;;;;;;2.85;0.85;;;20.70;99.90;;;;;;5072213;28;20052;-69
2021/08/26 12:43:58;;;;;;;3.28;0.70;;;20.60;99.90;;;;;;5067046;28;20075;-69
2021/08/26 12:46:26;;;;;;;3.00;0.70;;;20.80;99.90;;;;;;5076336;28;20044;-69
2021/08/26 12:49:08;;;;;;;3.00;0.50;;;20.80;99.90;;;;;;5104101;28;20093;-69